Earlington, Kentucky
Current Conditions -  °F | °C
As of 1:15 AM on Sunday 23 Nov 2014 (Local Time) from K2I0 Reporting Station
Scattered Clouds Scattered Clouds  
Wind Chill: 55°   Ceiling: Unl
Heat Index: 55°   Visibility: 10mi
Dew Point: 43°   Wind: 7mph
Humidity: 64%   Direction: 180°S
Pressure: 29.98"   Gusts: NA
Location:  37.27°N, 87.51°W
Report Text: K2I0 230715Z AUTO 18006KT 10SM SCT035 13/06 A2998 RMK AO2 T01260060
Loading
Personal Weather Stations






























Interactive Weather Map New forecast layout! Learn more

10-Day Weather Forecast

Advertisements
Track Severe Weather on mobile